createdAt,value
2019-01-30T00:01:09.816Z,95.30
2019-01-30T00:03:38.209Z,95.60
2019-01-30T00:06:06.176Z,95.70
2019-01-30T00:08:34.408Z,95.70
2019-01-30T00:11:02.284Z,95.80
2019-01-30T00:13:30.164Z,96.20
2019-01-30T00:15:58.040Z,96.90
2019-01-30T00:18:26.002Z,96.80
2019-01-30T00:20:53.871Z,96.40
2019-01-30T00:23:21.769Z,96.30
2019-01-30T00:25:49.918Z,96.70
2019-01-30T00:28:17.801Z,96.80
2019-01-30T00:30:45.666Z,96.90
2019-01-30T00:33:13.561Z,97.00
2019-01-30T00:35:41.552Z,96.90
2019-01-30T00:38:09.444Z,97.00
2019-01-30T00:40:37.341Z,97.30
2019-01-30T00:43:05.648Z,97.70
2019-01-30T00:45:33.527Z,97.80
2019-01-30T00:48:01.555Z,97.80
2019-01-30T00:50:29.431Z,98.00
2019-01-30T00:52:57.308Z,98.20
2019-01-30T00:55:25.248Z,98.20
2019-01-30T00:57:53.267Z,98.10
2019-01-30T01:00:21.325Z,98.50
2019-01-30T01:02:49.295Z,98.60
2019-01-30T01:05:17.233Z,98.40
2019-01-30T01:07:45.389Z,98.30
2019-01-30T01:10:14.381Z,98.40
2019-01-30T01:12:42.344Z,98.40
2019-01-30T01:15:11.058Z,98.50
2019-01-30T01:17:38.956Z,98.40
2019-01-30T01:20:07.684Z,98.40
2019-01-30T01:22:35.564Z,98.30
2019-01-30T01:25:04.157Z,98.40
2019-01-30T01:27:32.275Z,98.50
2019-01-30T01:30:00.201Z,98.60
2019-01-30T01:32:28.444Z,98.80
2019-01-30T01:34:56.324Z,98.90
2019-01-30T01:37:24.191Z,98.80
2019-01-30T01:39:52.085Z,98.80
2019-01-30T01:42:19.958Z,98.70
2019-01-30T01:44:47.852Z,98.60
2019-01-30T01:47:15.720Z,98.40
2019-01-30T01:49:43.863Z,98.20
2019-01-30T01:52:11.972Z,97.90
2019-01-30T01:54:40.197Z,97.70
2019-01-30T01:57:08.333Z,97.50
2019-01-30T01:59:36.214Z,97.30
2019-01-30T02:02:04.276Z,97.30
2019-01-30T02:04:32.154Z,97.10
2019-01-30T02:07:00.052Z,97.00
2019-01-30T02:09:27.938Z,96.90
2019-01-30T02:11:55.809Z,96.80
2019-01-30T02:14:23.793Z,96.80
2019-01-30T02:16:51.923Z,96.70
2019-01-30T02:19:20.233Z,96.70
2019-01-30T02:21:48.589Z,96.80
2019-01-30T02:24:16.471Z,96.80
2019-01-30T02:26:44.428Z,96.80
2019-01-30T02:29:12.321Z,96.80
2019-01-30T02:31:40.263Z,96.60
2019-01-30T02:34:08.163Z,96.20
2019-01-30T02:36:55.667Z,96.20
2019-01-30T02:39:23.798Z,96.10
2019-01-30T02:41:52.291Z,96.00
2019-01-30T02:44:20.365Z,96.00
2019-01-30T02:46:48.237Z,96.10
2019-01-30T02:49:16.412Z,96.20
2019-01-30T02:51:44.329Z,96.10
2019-01-30T02:54:12.240Z,95.90
2019-01-30T02:56:40.212Z,95.90
2019-01-30T02:59:08.280Z,95.90
2019-01-30T03:01:46.501Z,95.90
2019-01-30T03:04:14.392Z,95.90
2019-01-30T03:06:42.396Z,95.80
2019-01-30T03:09:10.697Z,95.70
2019-01-30T03:11:38.564Z,95.60
2019-01-30T03:14:06.456Z,95.60
2019-01-30T03:16:34.595Z,95.70
2019-01-30T03:19:02.467Z,95.50
2019-01-30T03:21:30.413Z,95.20
2019-01-30T03:23:58.402Z,95.10
2019-01-30T03:26:26.260Z,95.00
2019-01-30T03:28:54.424Z,95.00
2019-01-30T03:31:22.314Z,95.00
2019-01-30T03:33:50.253Z,95.10
2019-01-30T03:36:18.127Z,95.00
2019-01-30T03:38:46.010Z,95.10
2019-01-30T03:41:13.964Z,95.10
2019-01-30T03:43:41.853Z,95.10
2019-01-30T03:46:09.732Z,94.90
2019-01-30T03:48:37.643Z,94.70
2019-01-30T03:51:05.601Z,94.60
2019-01-30T03:53:33.548Z,94.80
2019-01-30T03:56:01.499Z,94.80
2019-01-30T03:58:29.376Z,94.90
2019-01-30T04:00:57.588Z,94.80
2019-01-30T04:03:25.469Z,94.80
2019-01-30T04:05:53.335Z,94.80
2019-01-30T04:08:21.282Z,94.90
2019-01-30T04:10:49.253Z,94.90
2019-01-30T04:13:17.189Z,94.90
2019-01-30T04:15:45.451Z,94.90
2019-01-30T04:18:13.321Z,94.80
2019-01-30T04:20:41.506Z,94.80
2019-01-30T04:23:09.375Z,94.80
2019-01-30T04:25:37.537Z,94.80
2019-01-30T04:28:05.788Z,94.80
2019-01-30T04:30:33.676Z,94.80
2019-01-30T04:33:01.571Z,94.80
2019-01-30T04:35:29.780Z,94.70
2019-01-30T04:37:57.732Z,94.70
2019-01-30T04:40:25.692Z,94.70
2019-01-30T04:42:53.938Z,94.60
2019-01-30T04:45:22.842Z,94.60
2019-01-30T04:47:50.704Z,94.50
2019-01-30T04:50:18.792Z,94.60
2019-01-30T04:52:46.992Z,94.70
2019-01-30T04:55:15.173Z,94.70
2019-01-30T04:57:43.065Z,94.80
2019-01-30T05:00:12.228Z,94.70
2019-01-30T05:02:40.104Z,94.60
2019-01-30T05:05:08.524Z,94.60
2019-01-30T05:07:36.388Z,94.60
2019-01-30T05:10:04.980Z,94.70
2019-01-30T05:12:32.847Z,94.80
2019-01-30T05:15:00.996Z,94.90
2019-01-30T05:17:28.890Z,94.90
2019-01-30T05:19:56.767Z,94.90
2019-01-30T05:22:24.955Z,95.00
2019-01-30T05:24:52.876Z,95.00
2019-01-30T05:27:20.754Z,94.90
2019-01-30T05:29:48.896Z,94.90
2019-01-30T05:32:16.779Z,94.90
2019-01-30T05:34:45.021Z,94.90
2019-01-30T05:37:13.356Z,94.90
2019-01-30T05:39:41.234Z,94.90
2019-01-30T05:42:09.412Z,95.00
2019-01-30T05:44:37.341Z,95.20
2019-01-30T05:47:05.280Z,95.30
2019-01-30T05:49:33.162Z,95.20
2019-01-30T05:52:01.037Z,95.00
2019-01-30T05:54:28.968Z,95.10
2019-01-30T05:56:56.860Z,95.20
2019-01-30T05:59:24.739Z,95.30
2019-01-30T06:01:52.614Z,95.40
2019-01-30T06:04:20.556Z,95.30
2019-01-30T06:06:48.428Z,95.20
2019-01-30T06:09:16.293Z,95.20
2019-01-30T06:11:44.168Z,95.20
2019-01-30T06:14:12.341Z,95.10
2019-01-30T06:16:40.348Z,95.00
2019-01-30T06:19:08.832Z,94.90
2019-01-30T06:21:36.727Z,95.00
2019-01-30T06:24:04.669Z,95.10
2019-01-30T06:26:33.763Z,95.20
2019-01-30T06:29:01.847Z,95.10
2019-01-30T06:31:29.792Z,95.00
2019-01-30T06:33:58.944Z,95.00
2019-01-30T06:36:26.830Z,94.90
2019-01-30T06:38:54.695Z,94.90
2019-01-30T06:41:22.601Z,94.80
2019-01-30T06:43:50.563Z,94.80
2019-01-30T06:46:18.635Z,94.90
2019-01-30T06:48:46.761Z,95.10
2019-01-30T06:51:14.731Z,95.40
2019-01-30T06:53:42.628Z,95.50
2019-01-30T06:56:10.923Z,95.70
2019-01-30T06:58:38.824Z,95.90
2019-01-30T07:01:06.716Z,95.90
2019-01-30T07:03:34.832Z,95.70
2019-01-30T07:06:02.793Z,95.70
2019-01-30T07:08:30.715Z,95.70
2019-01-30T07:10:58.624Z,95.70
2019-01-30T07:13:26.750Z,95.80
2019-01-30T07:15:55.005Z,95.80
2019-01-30T07:18:22.893Z,96.00
2019-01-30T07:20:51.044Z,96.10
2019-01-30T07:23:19.254Z,96.20
2019-01-30T07:25:47.215Z,96.20
2019-01-30T07:28:15.108Z,96.30
2019-01-30T07:30:43.012Z,96.30
2019-01-30T07:33:10.968Z,96.30
2019-01-30T07:35:38.939Z,96.20
2019-01-30T07:38:06.822Z,96.10
2019-01-30T07:40:34.992Z,96.10
2019-01-30T07:43:02.865Z,96.00
2019-01-30T07:45:30.851Z,96.00
2019-01-30T07:47:58.827Z,96.00
2019-01-30T07:50:26.765Z,95.80
2019-01-30T07:52:55.064Z,95.60
2019-01-30T07:55:23.803Z,95.50
2019-01-30T07:57:52.076Z,95.50
2019-01-30T08:00:21.083Z,95.50
2019-01-30T08:02:53.270Z,95.40
2019-01-30T08:05:19.120Z,95.30
2019-01-30T08:07:47.083Z,95.20
2019-01-30T08:10:15.037Z,95.20
2019-01-30T08:12:42.924Z,95.30
2019-01-30T08:15:11.983Z,94.10
2019-01-30T08:17:39.927Z,93.60
2019-01-30T08:20:08.932Z,92.80
2019-01-30T08:22:36.996Z,91.70
2019-01-30T08:25:05.721Z,89.90
2019-01-30T08:27:34.631Z,88.10
2019-01-30T08:30:02.717Z,84.40
2019-01-30T08:32:30.652Z,82.60
2019-01-30T08:34:58.552Z,81.70
2019-01-30T08:37:26.761Z,79.80
2019-01-30T08:39:54.619Z,78.00
2019-01-30T08:42:22.796Z,76.10
2019-01-30T08:44:51.073Z,75.40
2019-01-30T08:47:18.951Z,75.80
2019-01-30T08:49:46.821Z,75.30
2019-01-30T08:52:14.778Z,73.40
2019-01-30T08:54:42.644Z,73.30
2019-01-30T08:57:10.592Z,73.40
2019-01-30T08:59:38.569Z,72.50
2019-01-30T09:02:06.846Z,72.40
2019-01-30T09:04:34.712Z,71.40
2019-01-30T09:07:02.600Z,71.30
2019-01-30T09:09:30.464Z,71.10
2019-01-30T09:11:58.715Z,70.80
2019-01-30T09:14:26.582Z,70.00
2019-01-30T09:16:54.714Z,70.30
2019-01-30T09:19:22.579Z,70.70
2019-01-30T09:21:50.481Z,70.80
2019-01-30T09:24:18.348Z,70.20
2019-01-30T09:26:46.224Z,68.30
2019-01-30T09:29:14.092Z,68.00
2019-01-30T09:31:42.028Z,67.40
2019-01-30T09:34:09.947Z,67.00
2019-01-30T09:36:37.933Z,65.90
2019-01-30T09:39:07.957Z,65.10
2019-01-30T09:41:35.872Z,64.40
2019-01-30T09:44:03.869Z,64.80
2019-01-30T09:46:31.796Z,64.60
2019-01-30T09:48:59.670Z,65.30
2019-01-30T09:51:27.634Z,65.40
2019-01-30T09:53:57.612Z,66.40
2019-01-30T09:56:25.172Z,67.50
2019-01-30T09:58:53.053Z,66.80
2019-01-30T10:01:21.009Z,66.90
2019-01-30T10:03:48.914Z,67.30
2019-01-30T10:06:16.785Z,66.60
2019-01-30T10:08:44.705Z,67.40
2019-01-30T10:11:12.870Z,67.30
2019-01-30T10:13:40.768Z,67.50
2019-01-30T10:16:09.108Z,67.00
2019-01-30T10:18:37.086Z,65.60
2019-01-30T10:21:05.037Z,66.00
2019-01-30T10:23:33.000Z,66.20
2019-01-30T10:26:00.873Z,64.60
2019-01-30T10:28:28.776Z,64.90
2019-01-30T10:30:56.740Z,66.00
2019-01-30T10:33:24.658Z,66.80
2019-01-30T10:35:52.529Z,66.10
2019-01-30T10:38:20.823Z,65.50
2019-01-30T10:40:48.974Z,66.90
2019-01-30T10:43:16.924Z,67.50
2019-01-30T10:45:44.812Z,65.90
2019-01-30T10:48:12.720Z,66.50
2019-01-30T10:50:40.668Z,64.80
2019-01-30T10:53:08.867Z,65.20
2019-01-30T10:55:38.668Z,65.40
2019-01-30T10:58:08.234Z,64.30
2019-01-30T11:00:37.662Z,64.10
2019-01-30T11:03:05.857Z,63.70
2019-01-30T11:05:33.820Z,63.00
2019-01-30T11:08:01.717Z,62.00
2019-01-30T11:10:29.873Z,59.70
2019-01-30T11:12:57.889Z,60.20
2019-01-30T11:15:26.456Z,59.40
2019-01-30T11:17:54.417Z,60.10
2019-01-30T11:20:22.696Z,60.70
2019-01-30T11:22:53.317Z,60.70
2019-01-30T11:25:21.497Z,61.10
2019-01-30T11:27:49.427Z,60.30
2019-01-30T11:30:17.632Z,59.40
2019-01-30T11:32:45.855Z,59.20
2019-01-30T11:35:13.820Z,58.40
2019-01-30T11:37:41.755Z,59.00
2019-01-30T11:40:10.500Z,58.60
2019-01-30T11:42:38.433Z,58.50
2019-01-30T11:45:08.546Z,59.30
2019-01-30T11:47:36.584Z,60.00
2019-01-30T11:50:04.731Z,61.10
2019-01-30T11:52:32.688Z,60.10
2019-01-30T11:55:00.601Z,61.40
2019-01-30T11:57:28.489Z,61.90
2019-01-30T11:59:56.741Z,63.10
2019-01-30T12:02:24.676Z,63.30
2019-01-30T12:04:52.547Z,64.00
2019-01-30T12:07:20.436Z,64.00
2019-01-30T12:09:48.304Z,65.10
2019-01-30T12:12:16.192Z,64.70
2019-01-30T12:14:44.056Z,65.50
2019-01-30T12:17:11.948Z,66.00
2019-01-30T12:19:39.860Z,65.50
2019-01-30T12:22:07.904Z,66.10
2019-01-30T12:24:35.772Z,66.30
2019-01-30T12:27:03.741Z,66.70
2019-01-30T12:29:31.604Z,66.20
2019-01-30T12:31:59.573Z,66.10
2019-01-30T12:34:28.602Z,65.90
2019-01-30T12:36:56.680Z,66.00
2019-01-30T12:39:24.616Z,64.70
2019-01-30T12:41:52.880Z,64.00
2019-01-30T12:44:20.864Z,63.20
2019-01-30T12:46:49.045Z,62.30
2019-01-30T12:49:16.916Z,61.40
2019-01-30T12:51:44.822Z,61.30
2019-01-30T12:54:12.900Z,61.90
2019-01-30T12:56:40.935Z,63.40
2019-01-30T12:59:08.845Z,64.70
2019-01-30T13:01:37.020Z,65.30
2019-01-30T13:04:05.104Z,63.80
2019-01-30T13:06:32.968Z,63.30
2019-01-30T13:09:00.848Z,63.30
2019-01-30T13:11:28.972Z,63.90
2019-01-30T13:13:56.856Z,64.00
2019-01-30T13:16:24.796Z,63.60
2019-01-30T13:18:52.870Z,63.40
2019-01-30T13:21:20.817Z,64.60
2019-01-30T13:23:49.060Z,64.60
2019-01-30T13:26:17.044Z,65.20
2019-01-30T13:28:44.987Z,65.00
2019-01-30T13:31:13.332Z,65.60
2019-01-30T13:33:41.664Z,65.10
2019-01-30T13:36:09.666Z,66.10
2019-01-30T13:38:37.565Z,65.50
2019-01-30T13:41:05.522Z,65.70
2019-01-30T13:43:33.437Z,65.30
2019-01-30T13:46:05.481Z,64.80
2019-01-30T13:48:31.686Z,65.10
2019-01-30T13:51:00.008Z,65.30
2019-01-30T13:53:28.428Z,65.10
2019-01-30T13:55:56.350Z,63.80
2019-01-30T13:58:24.306Z,63.60
2019-01-30T14:00:52.271Z,62.90
2019-01-30T14:03:20.236Z,63.40
2019-01-30T14:05:48.235Z,64.50
2019-01-30T14:08:16.214Z,65.60
2019-01-30T14:10:44.478Z,65.20
2019-01-30T14:13:12.526Z,65.90
2019-01-30T14:15:40.529Z,65.40
2019-01-30T14:18:08.539Z,66.70
2019-01-30T14:20:36.482Z,67.10
2019-01-30T14:23:04.500Z,67.10
2019-01-30T14:25:32.712Z,67.40
2019-01-30T14:28:00.618Z,67.80
2019-01-30T14:30:32.988Z,67.80
2019-01-30T14:33:00.888Z,66.90
2019-01-30T14:35:29.858Z,67.30
2019-01-30T14:37:57.776Z,67.10
2019-01-30T14:40:25.748Z,66.50
2019-01-30T14:42:54.114Z,67.00
2019-01-30T14:45:22.492Z,67.50
2019-01-30T14:47:50.623Z,67.00
2019-01-30T14:50:19.653Z,66.60
2019-01-30T14:52:47.660Z,66.40
2019-01-30T14:55:15.772Z,66.90
2019-01-30T14:57:43.747Z,66.10
2019-01-30T15:00:13.824Z,66.60
2019-01-30T15:02:41.791Z,65.90
2019-01-30T15:05:21.459Z,66.60
2019-01-30T15:07:40.028Z,66.20
2019-01-30T15:10:08.820Z,66.20
2019-01-30T15:12:36.762Z,65.90
2019-01-30T15:15:05.308Z,66.20
2019-01-30T15:17:33.308Z,66.70
2019-01-30T15:20:01.562Z,67.30
2019-01-30T15:22:29.521Z,67.90
2019-01-30T15:24:57.415Z,68.90
2019-01-30T15:27:25.291Z,69.80
2019-01-30T15:29:53.357Z,69.50
2019-01-30T15:32:21.684Z,69.70
2019-01-30T15:34:49.579Z,69.90
2019-01-30T15:37:17.485Z,70.00
2019-01-30T15:39:45.444Z,70.70
2019-01-30T15:42:13.417Z,70.30
2019-01-30T15:44:41.331Z,71.40
2019-01-30T15:47:09.221Z,70.40
2019-01-30T15:49:37.398Z,70.00
2019-01-30T15:52:05.664Z,70.20
2019-01-30T15:54:33.771Z,69.90
2019-01-30T15:57:01.793Z,70.70
2019-01-30T15:59:29.849Z,70.40
2019-01-30T16:01:58.136Z,71.40
2019-01-30T16:04:26.109Z,71.30
2019-01-30T16:06:54.093Z,70.90
2019-01-30T16:09:22.324Z,71.00
2019-01-30T16:11:50.588Z,71.90
2019-01-30T16:14:18.732Z,72.20
2019-01-30T16:16:46.708Z,72.10
2019-01-30T16:19:15.317Z,72.20
2019-01-30T16:21:43.176Z,72.10
2019-01-30T16:24:11.166Z,72.60
2019-01-30T16:26:39.032Z,72.50
2019-01-30T16:29:07.020Z,73.40
2019-01-30T16:31:35.152Z,74.40
2019-01-30T16:34:03.032Z,75.40
2019-01-30T16:36:30.936Z,75.90
2019-01-30T16:38:58.973Z,75.30
2019-01-30T16:41:26.869Z,75.70
2019-01-30T16:43:55.029Z,75.50
2019-01-30T16:46:23.201Z,75.70
2019-01-30T16:48:51.072Z,75.50
2019-01-30T16:51:19.044Z,75.30
2019-01-30T16:53:47.264Z,75.70
2019-01-30T16:56:15.249Z,75.80
2019-01-30T16:58:43.198Z,75.90
2019-01-30T17:01:11.250Z,75.90
2019-01-30T17:03:39.120Z,76.00
2019-01-30T17:06:07.923Z,75.90
2019-01-30T17:08:36.000Z,76.00
2019-01-30T17:11:04.604Z,74.80
2019-01-30T17:13:32.470Z,74.90
2019-01-30T17:16:00.749Z,74.60
2019-01-30T17:18:28.792Z,74.30
2019-01-30T17:20:56.812Z,74.00
2019-01-30T17:23:24.740Z,74.20
2019-01-30T17:25:52.996Z,74.50
2019-01-30T17:28:20.878Z,75.20
2019-01-30T17:30:50.624Z,75.30
2019-01-30T17:33:18.783Z,75.70
2019-01-30T17:35:46.808Z,76.80
2019-01-30T17:38:14.747Z,77.30
2019-01-30T17:40:43.300Z,77.90
2019-01-30T17:43:11.245Z,78.60
2019-01-30T17:45:39.200Z,78.60
2019-01-30T17:48:08.012Z,78.50
2019-01-30T17:50:35.982Z,79.00
2019-01-30T17:53:03.925Z,79.50
2019-01-30T17:55:31.880Z,79.20
2019-01-30T17:58:00.077Z,79.80
2019-01-30T18:00:31.960Z,80.80
2019-01-30T18:03:10.947Z,81.00
2019-01-30T18:05:39.174Z,81.40
2019-01-30T18:08:07.031Z,81.70
2019-01-30T18:10:34.992Z,82.40
2019-01-30T18:13:03.214Z,83.30
2019-01-30T18:15:31.128Z,84.70
2019-01-30T18:17:58.983Z,84.60
2019-01-30T18:20:27.150Z,84.80
2019-01-30T18:22:55.049Z,84.90
2019-01-30T18:25:22.988Z,84.50
2019-01-30T18:27:50.872Z,84.20
2019-01-30T18:30:18.865Z,84.70
2019-01-30T18:32:47.056Z,84.30
2019-01-30T18:35:15.135Z,83.80
2019-01-30T18:37:43.320Z,84.10
2019-01-30T18:40:12.598Z,84.90
2019-01-30T18:42:40.528Z,84.90
2019-01-30T18:45:09.320Z,85.10
2019-01-30T18:47:37.258Z,84.40
2019-01-30T18:50:06.217Z,84.00
2019-01-30T19:50:27.667Z,82.40
2019-01-30T19:52:56.116Z,83.00
2019-01-30T19:55:24.269Z,84.00
2019-01-30T19:57:52.264Z,85.20
2019-01-30T20:00:21.200Z,85.60
2019-01-30T20:02:49.484Z,85.60
2019-01-30T20:05:25.049Z,87.10
2019-01-30T20:11:04.638Z,86.80
2019-01-30T20:13:34.072Z,88.00
2019-01-30T20:16:03.439Z,89.20
2019-01-30T20:18:33.825Z,89.70
2019-01-30T20:21:02.656Z,90.50
2019-01-30T20:23:32.004Z,90.60
2019-01-30T20:26:00.841Z,90.90
2019-01-30T20:28:30.271Z,91.30
2019-01-30T20:31:01.323Z,91.80
2019-01-30T20:33:30.300Z,92.30
2019-01-30T20:36:00.642Z,92.60
2019-01-30T20:38:30.081Z,93.00
2019-01-30T20:41:01.126Z,93.20
2019-01-30T20:43:32.119Z,93.40
2019-01-30T20:46:03.616Z,93.60
2019-01-30T20:48:33.105Z,93.90
2019-01-30T20:51:03.303Z,94.20
2019-01-30T20:53:33.463Z,94.50
2019-01-30T20:56:03.334Z,94.50
2019-01-30T20:58:32.260Z,94.50
2019-01-30T21:01:01.640Z,94.50
2019-01-30T21:03:31.122Z,94.50
2019-01-30T21:06:00.652Z,94.50
2019-01-30T21:08:29.984Z,94.90
2019-01-30T21:10:59.096Z,94.40
2019-01-30T21:13:28.303Z,94.00
2019-01-30T21:15:57.148Z,93.40
2019-01-30T21:18:25.473Z,92.80
2019-01-30T21:20:54.644Z,92.70
2019-01-30T21:23:23.764Z,92.60
2019-01-30T21:25:53.017Z,92.60
2019-01-30T21:28:21.570Z,92.50
2019-01-30T21:30:50.041Z,92.50
2019-01-30T21:33:18.337Z,91.70
2019-01-30T21:35:46.887Z,91.40
2019-01-30T21:38:15.764Z,90.90
2019-01-30T21:40:45.712Z,90.30
2019-01-30T21:43:14.533Z,90.20
2019-01-30T21:45:43.369Z,89.10
2019-01-30T21:48:12.031Z,87.40
2019-01-30T21:50:41.185Z,87.10
2019-01-30T21:53:09.865Z,86.60
2019-01-30T21:55:38.968Z,85.60
2019-01-30T21:58:07.572Z,84.70
2019-01-30T22:00:35.770Z,84.20
2019-01-30T22:03:04.309Z,84.40
2019-01-30T22:05:32.356Z,85.30
2019-01-30T22:08:01.334Z,86.70
2019-01-30T22:10:29.969Z,86.10
2019-01-30T22:12:58.348Z,86.20
2019-01-30T22:15:26.313Z,87.70
2019-01-30T22:17:54.676Z,88.10
2019-01-30T22:20:23.550Z,88.90
2019-01-30T22:22:51.568Z,90.20
2019-01-30T22:25:20.800Z,90.80
2019-01-30T22:27:49.221Z,90.90
2019-01-30T22:30:35.297Z,91.30
2019-01-30T22:33:03.604Z,91.40
2019-01-30T22:35:31.483Z,92.20
2019-01-30T22:37:59.397Z,92.40
2019-01-30T22:40:27.453Z,92.40
2019-01-30T22:42:55.456Z,92.70
2019-01-30T22:45:23.417Z,92.90
2019-01-30T22:47:51.388Z,93.20
2019-01-30T22:50:20.288Z,93.30
2019-01-30T22:52:48.259Z,93.10
2019-01-30T22:55:16.972Z,93.30
2019-01-30T22:57:45.049Z,93.50
2019-01-30T23:00:41.679Z,94.00
2019-01-30T23:03:10.085Z,94.00
2019-01-30T23:05:50.469Z,94.10
2019-01-30T23:08:23.619Z,94.20
2019-01-30T23:11:01.913Z,94.30
2019-01-30T23:13:32.524Z,94.20
2019-01-30T23:16:04.631Z,94.20
2019-01-30T23:18:39.409Z,94.20
2019-01-30T23:21:10.189Z,93.90
2019-01-30T23:23:45.653Z,93.90
2019-01-30T23:26:21.693Z,94.00
2019-01-30T23:29:27.248Z,94.20
2019-01-30T23:32:17.400Z,94.50
2019-01-30T23:34:54.144Z,94.70
2019-01-30T23:37:36.449Z,94.70
2019-01-30T23:40:20.849Z,94.80
2019-01-30T23:45:29.460Z,95.00
2019-01-30T23:48:16.589Z,95.60
2019-01-30T23:50:53.329Z,95.50
2019-01-30T23:53:40.523Z,95.50
2019-01-30T23:56:27.700Z,95.70
2019-01-30T23:59:14.920Z,96.20
